createdAt,value
2018-05-13T00:01:05.329Z,4.90
2018-05-13T00:03:32.870Z,4.30
2018-05-13T00:06:01.153Z,4.93
2018-05-13T00:08:29.424Z,4.77
2018-05-13T00:10:57.719Z,5.20
2018-05-13T00:13:25.232Z,4.57
2018-05-13T00:15:52.765Z,4.60
2018-05-13T00:18:20.272Z,4.90
2018-05-13T00:20:48.597Z,4.80
2018-05-13T00:23:16.128Z,5.43
2018-05-13T00:25:43.677Z,4.57
2018-05-13T00:28:11.959Z,4.60
2018-05-13T00:30:39.474Z,5.30
2018-05-13T00:33:07.013Z,5.40
2018-05-13T00:35:35.293Z,4.73
2018-05-13T00:38:02.843Z,5.43
2018-05-13T00:40:30.349Z,6.10
2018-05-13T00:42:58.651Z,5.70
2018-05-13T00:45:26.748Z,6.00
2018-05-13T00:47:55.111Z,6.47
2018-05-13T00:50:22.635Z,5.50
2018-05-13T00:52:50.932Z,5.30
2018-05-13T00:55:19.200Z,5.10
2018-05-13T00:57:47.514Z,5.50
2018-05-13T01:00:15.057Z,6.60
2018-05-13T01:02:42.593Z,6.20
2018-05-13T01:05:10.886Z,5.93
2018-05-13T01:07:39.152Z,6.60
2018-05-13T01:10:07.434Z,5.13
2018-05-13T01:12:34.995Z,7.10
2018-05-13T01:15:02.500Z,5.63
2018-05-13T01:17:30.040Z,6.30
2018-05-13T01:19:57.559Z,6.03
2018-05-13T01:22:25.845Z,6.30
2018-05-13T01:24:53.393Z,5.70
2018-05-13T01:27:21.689Z,5.60
2018-05-13T01:29:49.239Z,6.50
2018-05-13T01:32:16.786Z,6.13
2018-05-13T01:34:45.069Z,6.23
2018-05-13T01:37:13.378Z,5.80
2018-05-13T01:39:40.890Z,5.53
2018-05-13T01:42:08.421Z,5.60
2018-05-13T01:44:35.937Z,6.37
2018-05-13T01:47:03.453Z,5.90
2018-05-13T01:49:30.985Z,5.57
2018-05-13T01:51:58.509Z,4.90
2018-05-13T01:54:26.045Z,6.67
2018-05-13T01:56:54.329Z,5.93
2018-05-13T01:59:22.601Z,6.37
2018-05-13T02:01:50.889Z,6.70
2018-05-13T02:04:18.433Z,5.80
2018-05-13T02:06:46.730Z,5.60
2018-05-13T02:09:14.268Z,5.70
2018-05-13T02:11:42.557Z,6.90
2018-05-13T02:14:10.842Z,6.43
2018-05-13T02:16:39.126Z,6.00
2018-05-13T02:19:06.656Z,6.30
2018-05-13T02:21:34.950Z,5.53
2018-05-13T02:24:03.239Z,5.67
2018-05-13T02:26:30.758Z,5.47
2018-05-13T02:28:58.283Z,5.20
2018-05-13T02:31:25.807Z,6.03
2018-05-13T02:33:53.333Z,4.77
2018-05-13T02:36:20.842Z,5.13
2018-05-13T02:38:48.379Z,5.73
2018-05-13T02:41:16.648Z,5.13
2018-05-13T02:43:44.943Z,5.70
2018-05-13T02:46:12.444Z,5.90
2018-05-13T02:48:39.985Z,5.93
2018-05-13T02:51:07.508Z,5.80
2018-05-13T02:53:35.053Z,6.30
2018-05-13T02:56:03.365Z,6.00
2018-05-13T02:58:30.868Z,5.87
2018-05-13T03:00:58.398Z,6.30
2018-05-13T03:03:25.949Z,5.30
2018-05-13T03:05:53.448Z,7.53
2018-05-13T03:08:20.984Z,8.03
2018-05-13T03:10:48.521Z,6.63
2018-05-13T03:13:16.024Z,5.50
2018-05-13T03:15:43.555Z,6.80
2018-05-13T03:18:11.064Z,6.67
2018-05-13T03:20:39.359Z,6.00
2018-05-13T03:23:06.893Z,5.87
2018-05-13T03:25:35.201Z,6.50
2018-05-13T03:28:02.725Z,6.67
2018-05-13T03:30:30.250Z,5.33
2018-05-13T03:32:57.782Z,7.47
2018-05-13T03:35:25.292Z,6.63
2018-05-13T03:37:52.800Z,7.17
2018-05-13T03:40:20.349Z,6.60
2018-05-13T03:42:47.858Z,6.80
2018-05-13T03:45:15.421Z,5.63
2018-05-13T03:47:42.939Z,6.40
2018-05-13T03:50:10.473Z,4.90
2018-05-13T03:52:38.000Z,5.40
2018-05-13T03:55:05.504Z,5.40
2018-05-13T03:57:33.050Z,6.87
2018-05-13T04:00:00.590Z,6.10
2018-05-13T04:02:28.859Z,5.23
2018-05-13T04:04:56.422Z,5.40
2018-05-13T04:07:24.793Z,4.63
2018-05-13T04:10:04.226Z,5.03
2018-05-13T04:12:43.697Z,5.20
2018-05-13T04:15:22.039Z,5.37
2018-05-13T04:17:49.553Z,5.60
2018-05-13T04:20:17.863Z,4.60
2018-05-13T04:22:45.368Z,5.67
2018-05-13T04:25:12.869Z,5.80
2018-05-13T04:27:40.413Z,4.70
2018-05-13T04:30:08.695Z,4.03
2018-05-13T04:32:37.032Z,6.00
2018-05-13T04:35:04.577Z,5.23
2018-05-13T04:37:32.094Z,4.90
2018-05-13T04:39:59.654Z,5.63
2018-05-13T04:42:27.173Z,4.87
2018-05-13T04:44:54.710Z,5.27
2018-05-13T04:47:22.231Z,5.10
2018-05-13T04:49:49.763Z,4.27
2018-05-13T04:52:17.286Z,4.60
2018-05-13T04:54:44.830Z,4.70
2018-05-13T04:57:12.381Z,3.80
2018-05-13T04:59:39.883Z,3.80
2018-05-13T05:02:07.399Z,4.47
2018-05-13T05:04:34.949Z,4.80
2018-05-13T05:07:02.475Z,4.20
2018-05-13T05:09:30.017Z,4.20
2018-05-13T05:11:57.532Z,4.43
2018-05-13T05:14:25.079Z,4.47
2018-05-13T05:16:52.609Z,5.03
2018-05-13T05:19:20.115Z,4.70
2018-05-13T05:21:47.655Z,4.17
2018-05-13T05:24:15.189Z,4.20
2018-05-13T05:26:42.698Z,5.00
2018-05-13T05:29:10.251Z,4.77
2018-05-13T05:31:37.765Z,4.33
2018-05-13T05:34:05.326Z,4.40
2018-05-13T05:36:32.832Z,4.23
2018-05-13T05:39:00.349Z,3.60
2018-05-13T05:41:28.649Z,5.20
2018-05-13T05:43:56.175Z,4.93
2018-05-13T05:46:23.702Z,4.30
2018-05-13T05:48:51.219Z,4.90
2018-05-13T05:51:18.745Z,4.73
2018-05-13T05:53:46.266Z,4.30
2018-05-13T05:56:13.768Z,4.33
2018-05-13T05:58:41.304Z,5.00
2018-05-13T06:01:08.829Z,4.90
2018-05-13T06:03:36.382Z,5.10
2018-05-13T06:06:03.903Z,4.57
2018-05-13T06:08:31.431Z,3.80
2018-05-13T06:10:58.974Z,4.73
2018-05-13T06:13:26.503Z,3.87
2018-05-13T06:15:54.792Z,4.53
2018-05-13T06:18:22.318Z,4.57
2018-05-13T06:20:49.844Z,4.63
2018-05-13T06:23:17.401Z,4.43
2018-05-13T06:25:44.905Z,5.20
2018-05-13T06:28:13.190Z,4.87
2018-05-13T06:30:41.496Z,4.10
2018-05-13T06:33:09.009Z,4.57
2018-05-13T06:35:36.568Z,4.40
2018-05-13T06:38:04.066Z,4.50
2018-05-13T06:40:31.585Z,4.70
2018-05-13T06:43:00.630Z,4.60
2018-05-13T06:45:28.145Z,3.83
2018-05-13T06:50:30.572Z,3.93
2018-05-13T06:52:58.099Z,3.63
2018-05-13T06:55:26.370Z,4.20
2018-05-13T06:57:53.901Z,3.70
2018-05-13T07:00:21.422Z,3.77
2018-05-13T07:02:48.939Z,3.47
2018-05-13T07:05:17.251Z,3.00
2018-05-13T07:07:44.765Z,3.00
2018-05-13T07:10:12.272Z,3.07
2018-05-13T07:12:39.823Z,2.97
2018-05-13T07:15:07.329Z,3.20
2018-05-13T07:17:34.855Z,2.40
2018-05-13T07:20:02.370Z,2.80
2018-05-13T07:22:30.654Z,2.83
2018-05-13T07:24:58.940Z,2.77
2018-05-13T07:27:26.445Z,2.63
2018-05-13T07:29:53.971Z,3.17
2018-05-13T07:32:21.511Z,2.80
2018-05-13T07:34:49.796Z,3.00
2018-05-13T07:37:17.321Z,3.27
2018-05-13T07:39:44.841Z,3.47
2018-05-13T07:42:12.366Z,3.13
2018-05-13T07:44:40.646Z,3.73
2018-05-13T07:47:08.158Z,2.40
2018-05-13T07:49:35.681Z,3.20
2018-05-13T07:52:03.186Z,2.77
2018-05-13T07:54:30.725Z,3.20
2018-05-13T07:56:58.237Z,3.00
2018-05-13T07:59:26.508Z,3.20
2018-05-13T08:01:54.796Z,2.87
2018-05-13T08:04:22.323Z,3.13
2018-05-13T08:06:49.860Z,2.57
2018-05-13T08:09:17.372Z,3.20
2018-05-13T08:11:45.014Z,3.03
2018-05-13T08:14:13.309Z,3.43
2018-05-13T08:16:40.849Z,3.47
2018-05-13T08:19:09.132Z,2.90
2018-05-13T08:21:37.406Z,2.80
2018-05-13T08:24:06.352Z,3.13
2018-05-13T08:26:33.872Z,2.77
2018-05-13T08:29:01.377Z,3.20
2018-05-13T08:31:28.913Z,3.40
2018-05-13T08:33:56.429Z,2.27
2018-05-13T08:36:24.707Z,2.43
2018-05-13T08:38:53.002Z,2.43
2018-05-13T08:41:20.501Z,3.17
2018-05-13T08:43:48.066Z,3.40
2018-05-13T08:46:15.560Z,3.40
2018-05-13T08:48:43.833Z,3.47
2018-05-13T08:51:12.126Z,3.57
2018-05-13T08:53:39.639Z,3.17
2018-05-13T08:56:07.166Z,2.73
2018-05-13T08:58:34.719Z,3.20
2018-05-13T09:01:02.234Z,3.33
2018-05-13T09:03:29.764Z,3.57
2018-05-13T09:05:57.284Z,2.70
2018-05-13T09:08:24.860Z,3.47
2018-05-13T09:10:52.344Z,3.30
2018-05-13T09:13:19.899Z,3.27
2018-05-13T09:15:47.430Z,3.53
2018-05-13T09:18:14.955Z,2.90
2018-05-13T09:23:17.104Z,2.67
2018-05-13T09:25:44.655Z,3.87
2018-05-13T09:28:12.153Z,3.53
2018-05-13T09:30:40.425Z,3.70
2018-05-13T09:33:08.003Z,3.47
2018-05-13T09:35:35.506Z,3.03
2018-05-13T09:38:03.046Z,2.77
2018-05-13T09:40:30.571Z,3.60
2018-05-13T09:42:58.842Z,4.30
2018-05-13T09:45:27.136Z,3.50
2018-05-13T09:47:55.442Z,3.00
2018-05-13T09:50:22.972Z,3.33
2018-05-13T09:52:51.236Z,3.47
2018-05-13T09:55:19.510Z,3.40
2018-05-13T09:57:47.792Z,3.03
2018-05-13T10:00:16.093Z,3.73
2018-05-13T10:02:43.629Z,4.97
2018-05-13T10:05:11.164Z,4.30
2018-05-13T10:07:38.664Z,4.23
2018-05-13T10:10:06.987Z,5.57
2018-05-13T10:12:34.504Z,3.73
2018-05-13T10:15:02.076Z,3.00
2018-05-13T10:17:29.594Z,2.70
2018-05-13T10:19:57.877Z,2.87
2018-05-13T10:22:26.165Z,2.93
2018-05-13T10:24:53.673Z,4.23
2018-05-13T10:27:22.067Z,2.40
2018-05-13T10:29:49.524Z,2.93
2018-05-13T10:32:17.035Z,3.27
2018-05-13T10:34:45.337Z,3.10
2018-05-13T10:37:12.871Z,2.70
2018-05-13T10:39:40.426Z,2.70
2018-05-13T10:42:07.928Z,2.63
2018-05-13T10:44:35.441Z,2.80
2018-05-13T10:47:02.963Z,2.53
2018-05-13T10:49:31.252Z,2.43
2018-05-13T10:51:59.553Z,2.40
2018-05-13T10:54:27.062Z,2.63
2018-05-13T10:56:54.573Z,2.40
2018-05-13T10:59:22.117Z,2.30
2018-05-13T11:01:49.617Z,2.47
2018-05-13T11:04:17.144Z,2.80
2018-05-13T11:06:44.668Z,2.20
2018-05-13T11:09:12.208Z,2.60
2018-05-13T11:11:39.728Z,2.60
2018-05-13T11:14:07.312Z,6.10
2018-05-13T11:16:34.870Z,3.97
2018-05-13T11:19:02.389Z,3.30
2018-05-13T11:21:29.887Z,3.10
2018-05-13T11:23:57.404Z,2.67
2018-05-13T11:26:24.918Z,3.50
2018-05-13T11:28:52.457Z,2.93
2018-05-13T11:31:19.975Z,2.93
2018-05-13T11:33:48.270Z,2.50
2018-05-13T11:36:15.819Z,2.40
2018-05-13T11:38:43.339Z,2.63
2018-05-13T11:41:10.891Z,2.40
2018-05-13T11:43:38.394Z,2.57
2018-05-13T11:46:05.906Z,2.70
2018-05-13T11:48:33.447Z,2.63
2018-05-13T11:51:00.951Z,2.90
2018-05-13T11:53:29.240Z,2.43
2018-05-13T11:55:56.769Z,2.20
2018-05-13T11:58:24.271Z,2.47
2018-05-13T12:00:51.796Z,2.43
2018-05-13T12:03:20.379Z,3.10
2018-05-13T12:05:48.687Z,3.30
2018-05-13T12:08:16.210Z,2.60
2018-05-13T12:10:44.489Z,3.07
2018-05-13T12:13:12.779Z,2.40
2018-05-13T12:15:41.065Z,2.97
2018-05-13T12:18:08.602Z,3.20
2018-05-13T12:20:36.116Z,2.53
2018-05-13T12:23:03.638Z,2.57
2018-05-13T12:25:31.925Z,2.70
2018-05-13T12:27:59.453Z,2.27
2018-05-13T12:30:27.000Z,3.30
2018-05-13T12:32:54.525Z,3.10
2018-05-13T12:35:22.032Z,3.27
2018-05-13T12:37:50.355Z,3.00
2018-05-13T12:40:17.858Z,3.10
2018-05-13T12:42:45.400Z,2.67
2018-05-13T12:45:12.918Z,3.33
2018-05-13T12:47:40.459Z,3.20
2018-05-13T12:50:08.814Z,3.03
2018-05-13T12:52:36.276Z,3.00
2018-05-13T12:55:04.706Z,3.30
2018-05-13T12:57:33.069Z,3.13
2018-05-13T13:00:01.468Z,3.33
2018-05-13T13:02:29.039Z,3.30
2018-05-13T13:04:56.529Z,3.47
2018-05-13T13:07:24.056Z,2.87
2018-05-13T13:09:51.563Z,3.20
2018-05-13T13:12:19.858Z,3.13
2018-05-13T13:14:47.413Z,3.10
2018-05-13T13:17:14.934Z,4.03
2018-05-13T13:19:42.471Z,3.63
2018-05-13T13:22:10.776Z,3.20
2018-05-13T13:24:39.473Z,4.30
2018-05-13T13:27:07.778Z,3.80
2018-05-13T13:29:35.311Z,3.30
2018-05-13T13:32:03.608Z,3.60
2018-05-13T13:34:31.124Z,3.70
2018-05-13T13:36:58.637Z,3.53
2018-05-13T13:39:26.720Z,3.43
2018-05-13T13:41:55.051Z,3.83
2018-05-13T13:44:23.337Z,3.97
2018-05-13T13:46:52.486Z,4.53
2018-05-13T13:49:20.894Z,3.60
2018-05-13T13:51:48.417Z,3.73
2018-05-13T13:54:15.922Z,3.73
2018-05-13T13:56:44.255Z,2.90
2018-05-13T13:59:11.783Z,3.20
2018-05-13T14:01:39.330Z,3.40
2018-05-13T14:04:06.844Z,2.63
2018-05-13T14:06:34.356Z,3.50
2018-05-13T14:09:01.894Z,3.23
2018-05-13T14:11:30.170Z,3.00
2018-05-13T14:13:58.436Z,2.93
2018-05-13T14:16:26.724Z,3.63
2018-05-13T14:18:55.005Z,3.87
2018-05-13T14:21:23.309Z,4.67
2018-05-13T14:23:50.882Z,3.90
2018-05-13T14:26:20.086Z,3.80
2018-05-13T14:28:47.613Z,3.87
2018-05-13T14:31:15.112Z,4.63
2018-05-13T14:33:42.662Z,3.30
2018-05-13T14:36:10.181Z,3.70
2018-05-13T14:38:37.710Z,3.90
2018-05-13T14:41:05.276Z,3.40
2018-05-13T14:43:32.748Z,4.40
2018-05-13T14:46:01.077Z,3.50
2018-05-13T14:48:28.581Z,5.00
2018-05-13T14:50:56.867Z,4.30
2018-05-13T14:53:24.485Z,4.07
2018-05-13T14:55:52.016Z,3.67
2018-05-13T14:58:19.547Z,4.00
2018-05-13T15:00:47.080Z,5.13
2018-05-13T15:03:15.358Z,3.30
2018-05-13T15:05:43.647Z,4.07
2018-05-13T15:08:11.932Z,4.03
2018-05-13T15:10:39.469Z,4.33
2018-05-13T15:13:07.019Z,4.20
2018-05-13T15:15:34.512Z,4.03
2018-05-13T15:18:02.795Z,4.60
2018-05-13T15:20:30.313Z,3.63
2018-05-13T15:22:58.628Z,4.40
2018-05-13T15:25:26.139Z,4.43
2018-05-13T15:27:53.640Z,4.60
2018-05-13T15:30:21.161Z,4.30
2018-05-13T15:32:48.670Z,4.70
2018-05-13T15:35:16.211Z,4.80
2018-05-13T15:37:44.496Z,4.00
2018-05-13T15:40:12.017Z,4.97
2018-05-13T15:42:39.613Z,5.20
2018-05-13T15:45:07.076Z,4.40
2018-05-13T15:47:34.600Z,4.83
2018-05-13T15:50:02.158Z,4.90
2018-05-13T15:52:29.668Z,5.00
2018-05-13T15:57:31.174Z,4.70
2018-05-13T15:59:58.690Z,4.90
2018-05-13T16:02:26.187Z,4.63
2018-05-13T16:04:53.697Z,4.40
2018-05-13T16:07:21.251Z,4.23
2018-05-13T16:09:49.535Z,4.20
2018-05-13T16:12:17.200Z,4.30
2018-05-13T16:14:44.608Z,5.00
2018-05-13T16:17:12.122Z,6.23
2018-05-13T16:19:39.645Z,5.10
2018-05-13T16:22:07.923Z,5.10
2018-05-13T16:24:36.220Z,4.77
2018-05-13T16:27:03.753Z,4.97
2018-05-13T16:29:32.039Z,4.53
2018-05-13T16:32:00.315Z,4.00
2018-05-13T16:34:28.618Z,3.97
2018-05-13T16:36:56.148Z,4.20
2018-05-13T16:39:24.420Z,4.67
2018-05-13T16:41:52.686Z,5.07
2018-05-13T16:44:20.973Z,3.63
2018-05-13T16:46:49.273Z,4.83
2018-05-13T16:49:16.807Z,4.83
2018-05-13T16:51:45.087Z,4.73
2018-05-13T16:54:13.377Z,4.67
2018-05-13T16:56:40.912Z,4.43
2018-05-13T16:59:09.320Z,4.43
2018-05-13T17:01:36.831Z,4.33
2018-05-13T17:04:04.366Z,3.53
2018-05-13T17:06:31.865Z,3.90
2018-05-13T17:09:00.133Z,4.80
2018-05-13T17:11:27.647Z,4.97
2018-05-13T17:13:55.149Z,5.20
2018-05-13T17:16:22.675Z,7.00
2018-05-13T17:18:50.181Z,4.30
2018-05-13T17:21:18.466Z,4.93
2018-05-13T17:23:46.765Z,4.07
2018-05-13T17:26:14.302Z,4.50
2018-05-13T17:28:42.597Z,4.10
2018-05-13T17:31:10.113Z,4.70
2018-05-13T17:33:37.622Z,5.13
2018-05-13T17:36:05.164Z,4.20
2018-05-13T17:38:32.669Z,5.03
2018-05-13T17:41:00.208Z,4.90
2018-05-13T17:43:27.725Z,5.13
2018-05-13T17:45:56.017Z,5.63
2018-05-13T17:48:23.530Z,5.00
2018-05-13T17:50:51.072Z,5.70
2018-05-13T17:53:18.593Z,6.03
2018-05-13T17:55:46.131Z,6.10
2018-05-13T17:58:14.420Z,5.00
2018-05-13T18:00:42.694Z,6.13
2018-05-13T18:03:11.142Z,5.97
2018-05-13T18:05:38.550Z,5.33
2018-05-13T18:08:06.061Z,5.00
2018-05-13T18:10:33.577Z,5.50
2018-05-13T18:13:01.114Z,5.90
2018-05-13T18:15:28.666Z,5.50
2018-05-13T18:17:56.955Z,5.60
2018-05-13T18:20:24.471Z,6.77
2018-05-13T18:22:52.002Z,5.40
2018-05-13T18:25:19.524Z,5.50
2018-05-13T18:27:47.369Z,5.43
2018-05-13T18:30:15.649Z,6.20
2018-05-13T18:32:43.926Z,5.63
2018-05-13T18:35:12.222Z,5.77
2018-05-13T18:37:39.728Z,5.87
2018-05-13T18:40:07.264Z,6.37
2018-05-13T18:42:34.782Z,7.30
2018-05-13T18:45:03.064Z,6.30
2018-05-13T18:47:31.362Z,6.80
2018-05-13T18:49:58.863Z,6.23
2018-05-13T18:52:26.402Z,6.73
2018-05-13T18:54:53.946Z,6.63
2018-05-13T18:57:21.456Z,6.97
2018-05-13T18:59:48.971Z,6.20
2018-05-13T19:02:16.481Z,7.60
2018-05-13T19:04:44.791Z,6.80
2018-05-13T19:07:12.312Z,6.87
2018-05-13T19:09:39.826Z,6.00
2018-05-13T19:12:07.338Z,7.47
2018-05-13T19:14:35.610Z,6.93
2018-05-13T19:17:03.926Z,7.10
2018-05-13T19:19:31.433Z,6.40
2018-05-13T19:21:58.960Z,6.53
2018-05-13T19:24:26.472Z,6.40
2018-05-13T19:26:54.753Z,6.77
2018-05-13T19:29:23.044Z,5.30
2018-05-13T19:31:50.549Z,5.30
2018-05-13T19:34:18.057Z,5.73
2018-05-13T19:36:45.633Z,4.57
2018-05-13T19:39:13.887Z,4.57
2018-05-13T19:41:41.430Z,4.77
2018-05-13T19:44:09.725Z,4.37
2018-05-13T19:46:37.241Z,5.00
2018-05-13T19:49:04.776Z,3.83
2018-05-13T19:51:32.297Z,4.03
2018-05-13T19:54:00.601Z,3.60
2018-05-13T19:56:28.097Z,4.00
2018-05-13T19:58:55.616Z,3.90
2018-05-13T20:01:23.133Z,3.60
2018-05-13T20:03:51.504Z,4.40
2018-05-13T20:06:18.984Z,4.70
2018-05-13T20:08:46.544Z,3.07
2018-05-13T20:11:14.144Z,3.63
2018-05-13T20:13:41.689Z,3.67
2018-05-13T20:16:09.197Z,3.90
2018-05-13T20:18:37.499Z,4.13
2018-05-13T20:21:05.765Z,3.60
2018-05-13T20:23:34.059Z,4.57
2018-05-13T20:26:01.588Z,3.23
2018-05-13T20:28:29.095Z,3.73
2018-05-13T20:30:56.633Z,3.63
2018-05-13T20:33:24.139Z,3.03
2018-05-13T20:35:51.700Z,3.30
2018-05-13T20:38:19.198Z,3.57
2018-05-13T20:40:47.474Z,3.37
2018-05-13T20:43:15.042Z,3.80
2018-05-13T20:45:42.540Z,3.77
2018-05-13T20:48:10.813Z,3.23
2018-05-13T20:50:38.359Z,4.10
2018-05-13T20:53:05.869Z,3.73
2018-05-13T20:55:33.414Z,3.80
2018-05-13T20:58:00.924Z,4.20
2018-05-13T21:00:28.433Z,4.10
2018-05-13T21:02:55.977Z,3.67
2018-05-13T21:05:23.555Z,4.50
2018-05-13T21:07:51.058Z,3.60
2018-05-13T21:10:18.563Z,3.90
2018-05-13T21:12:46.088Z,4.23
2018-05-13T21:15:13.607Z,4.97
2018-05-13T21:17:41.891Z,5.13
2018-05-13T21:20:10.218Z,3.67
2018-05-13T21:22:37.743Z,4.90
2018-05-13T21:25:05.285Z,4.50
2018-05-13T21:27:33.590Z,4.13
2018-05-13T21:30:01.118Z,4.57
2018-05-13T21:32:29.435Z,4.17
2018-05-13T21:34:56.941Z,4.40
2018-05-13T21:37:25.216Z,4.30
2018-05-13T21:39:52.748Z,4.67
2018-05-13T21:42:20.277Z,4.37
2018-05-13T21:44:47.814Z,4.73
2018-05-13T21:47:15.372Z,4.27
2018-05-13T21:49:43.656Z,4.60
2018-05-13T21:52:11.191Z,4.33
2018-05-13T21:54:39.580Z,4.10
2018-05-13T21:57:07.039Z,5.00
2018-05-13T21:59:34.586Z,4.60
2018-05-13T22:02:02.882Z,4.30
2018-05-13T22:04:30.413Z,4.07
2018-05-13T22:06:57.930Z,4.60
2018-05-13T22:09:25.489Z,4.30
2018-05-13T22:11:53.006Z,4.93
2018-05-13T22:14:21.287Z,4.90
2018-05-13T22:16:49.584Z,5.40
2018-05-13T22:19:17.091Z,4.63
2018-05-13T22:21:44.620Z,4.70
2018-05-13T22:24:12.142Z,4.70
2018-05-13T22:26:40.414Z,3.83
2018-05-13T22:29:08.705Z,5.17
2018-05-13T22:31:36.245Z,4.47
2018-05-13T22:34:04.560Z,4.93
2018-05-13T22:36:32.150Z,4.97
2018-05-13T22:39:00.369Z,5.00
2018-05-13T22:41:28.687Z,4.63
2018-05-13T22:43:56.195Z,5.37
2018-05-13T22:46:24.495Z,5.57
2018-05-13T22:48:52.031Z,5.53
2018-05-13T22:51:20.322Z,5.33
2018-05-13T22:53:47.878Z,5.10
2018-05-13T22:56:16.152Z,6.67
2018-05-13T22:58:44.439Z,6.87
2018-05-13T23:01:11.955Z,6.40
2018-05-13T23:03:39.465Z,6.50
2018-05-13T23:06:07.021Z,6.27
2018-05-13T23:08:34.542Z,6.63
2018-05-13T23:11:02.091Z,6.53
2018-05-13T23:13:29.603Z,5.90
2018-05-13T23:15:57.388Z,7.20
2018-05-13T23:18:24.935Z,7.23
2018-05-13T23:20:52.446Z,6.40
2018-05-13T23:23:20.720Z,6.10
2018-05-13T23:25:49.037Z,6.00
2018-05-13T23:28:16.549Z,6.63
2018-05-13T23:30:44.858Z,6.57
2018-05-13T23:33:12.378Z,6.83
2018-05-13T23:35:39.880Z,7.67
2018-05-13T23:38:07.399Z,6.77
2018-05-13T23:40:34.928Z,6.30
2018-05-13T23:43:02.446Z,7.17
2018-05-13T23:45:29.957Z,5.40
2018-05-13T23:47:57.486Z,6.70
2018-05-13T23:50:25.043Z,5.80
2018-05-13T23:52:52.553Z,5.67
2018-05-13T23:55:20.090Z,6.20
